Time;durP1;ratioP1;P1;durP2;ratioP2;P2;SDS_P1;SDS_P2;PMS_P1;PMS_P2;Temp;Humidity;BMP_temperature;BMP_pressure;BME280_temperature;BME280_humidity;BME280_pressure;Samples;Min_cycle;Max_cycle;Signal;HPM_P1;HPM_P2
2021/05/03 00:00:19;;;;;;;19.23;11.60;;;;;;;14.51;100.00;97821.98;1793558;80;21296;-62
2021/05/03 00:02:46;;;;;;;17.85;12.28;;;;;;;14.47;100.00;97822.48;1788911;80;21307;-62
2021/05/03 00:05:26;;;;;;;20.12;13.18;;;;;;;14.46;100.00;97826.43;1779663;80;21153;-63
2021/05/03 00:07:54;;;;;;;20.43;11.73;;;;;;;14.43;100.00;97845.52;1779668;80;21287;-64
2021/05/03 00:10:24;;;;;;;19.02;12.58;;;;;;;14.40;100.00;97839.11;1765120;80;21149;-62
2021/05/03 00:12:52;;;;;;;21.12;12.65;;;;;;;14.38;100.00;97838.73;1777886;80;21181;-63
2021/05/03 00:15:22;;;;;;;23.92;12.47;;;;;;;14.35;100.00;97837.06;1790694;80;21141;-65
2021/05/03 00:17:51;;;;;;;22.15;12.93;;;;;;;14.33;100.00;97846.62;1784363;80;21717;-63
2021/05/03 00:20:18;;;;;;;19.32;12.03;;;;;;;14.30;100.00;97844.94;1788340;80;21300;-63
2021/05/03 00:22:48;;;;;;;20.27;12.20;;;;;;;14.29;100.00;97848.86;1776163;80;21618;-62
2021/05/03 00:25:16;;;;;;;23.77;11.95;;;;;;;14.28;100.00;97848.45;1784102;80;21610;-64
2021/05/03 00:27:44;;;;;;;20.15;11.55;;;;;;;14.25;100.00;97849.83;1777440;80;21149;-64
2021/05/03 00:30:15;;;;;;;17.57;11.10;;;;;;;14.21;100.00;97842.98;1770487;80;21668;-62
2021/05/03 00:32:45;;;;;;;19.30;12.55;;;;;;;14.19;100.00;97844.75;1781919;80;21201;-61
2021/05/03 00:35:15;;;;;;;21.07;13.30;;;;;;;14.18;100.00;97852.98;1773396;80;21291;-63
2021/05/03 00:37:43;;;;;;;20.52;13.85;;;;;;;14.18;100.00;97852.14;1778490;80;21691;-68
2021/05/03 00:40:11;;;;;;;23.20;13.00;;;;;;;14.15;100.00;97852.21;1780649;80;21156;-65
2021/05/03 00:42:42;;;;;;;17.82;10.82;;;;;;;14.10;100.00;97855.74;1778986;80;21335;-63
2021/05/03 00:45:14;;;;;;;20.02;10.58;;;;;;;14.07;100.00;97856.27;1794898;80;21308;-64
2021/05/03 00:47:41;;;;;;;19.67;10.43;;;;;;;14.04;100.00;97845.52;1789612;80;21146;-65
2021/05/03 00:50:13;;;;;;;20.72;10.55;;;;;;;14.03;100.00;97850.72;1796241;80;21410;-66
2021/05/03 00:52:42;;;;;;;18.55;10.82;;;;;;;14.00;100.00;97849.05;1795416;80;21153;-65
2021/05/03 00:55:12;;;;;;;16.15;11.03;;;;;;;13.98;100.00;97847.37;1787807;80;21152;-63
2021/05/03 00:57:40;;;;;;;14.85;10.65;;;;;;;13.97;100.00;97841.33;1767204;80;21338;-62
2021/05/03 01:00:12;;;;;;;15.60;10.68;;;;;;;13.95;100.00;97843.09;1794878;80;21207;-63
2021/05/03 01:02:40;;;;;;;15.60;10.05;;;;;;;13.93;100.00;97847.45;1795550;80;21161;-61
2021/05/03 01:05:10;;;;;;;17.07;10.10;;;;;;;13.89;100.00;97855.75;1774264;80;21172;-62
2021/05/03 01:07:40;;;;;;;14.10;9.13;;;;;;;13.88;100.00;97851.87;1776455;80;21138;-62
2021/05/03 01:10:10;;;;;;;14.55;9.55;;;;;;;13.84;100.00;97861.47;1777479;80;21330;-62
2021/05/03 01:12:37;;;;;;;15.43;9.73;;;;;;;13.81;100.00;97864.55;1767916;80;21593;-65
2021/05/03 01:15:09;;;;;;;12.88;8.95;;;;;;;13.78;100.00;97856.84;1795433;80;21173;-65
2021/05/03 01:17:41;;;;;;;16.87;8.40;;;;;;;13.74;99.80;97854.77;1794819;80;21706;-70
2021/05/03 01:20:17;;;;;;;13.55;7.60;;;;;;;13.66;99.34;97866.99;1791507;80;21299;-66
2021/05/03 01:22:44;;;;;;;10.48;6.87;;;;;;;13.58;98.72;97871.03;1792793;80;21730;-66
2021/05/03 01:25:13;;;;;;;10.05;5.53;;;;;;;13.51;97.92;97878.53;1787321;80;21165;-66
2021/05/03 01:27:41;;;;;;;9.80;5.87;;;;;;;13.47;97.28;97871.68;1779033;80;21351;-69
2021/05/03 01:30:11;;;;;;;7.58;5.83;;;;;;;13.43;96.35;97879.08;1785048;80;21173;-68
2021/05/03 01:32:39;;;;;;;7.08;4.80;;;;;;;13.38;95.29;97886.09;1769293;80;21314;-65
2021/05/03 01:35:11;;;;;;;8.35;4.12;;;;;;;13.30;93.61;97883.63;1765264;80;21879;-62
2021/05/03 01:37:39;;;;;;;7.37;3.60;;;;;;;13.22;92.19;97890.66;1774684;80;21227;-63
2021/05/03 01:40:10;;;;;;;6.10;3.27;;;;;;;13.13;90.14;97887.79;1778679;80;21281;-63
2021/05/03 01:42:37;;;;;;;5.80;3.80;;;;;;;13.06;88.04;97891.36;1768532;80;21746;-61
2021/05/03 01:45:07;;;;;;;5.50;3.10;;;;;;;12.99;87.26;97889.29;1769399;80;21307;-64
2021/05/03 01:47:37;;;;;;;6.80;4.03;;;;;;;12.92;85.30;97892.85;1765247;80;21167;-62
2021/05/03 01:50:07;;;;;;;7.12;3.60;;;;;;;12.86;84.35;97898.14;1765193;80;21246;-43
2021/05/03 01:52:37;;;;;;;7.08;3.37;;;;;;;12.88;84.85;97898.13;1778788;80;21157;-68
2021/05/03 01:55:06;;;;;;;6.10;3.17;;;;;;;12.96;83.29;97894.97;1770037;80;21212;-66
2021/05/03 01:57:34;;;;;;;7.15;2.98;;;;;;;12.88;81.91;97886.03;1793521;80;21209;-61
2021/05/03 02:00:01;;;;;;;6.92;2.83;;;;;;;12.76;80.88;97888.36;1784496;80;21153;-63
2021/05/03 02:02:31;;;;;;;5.10;2.87;;;;;;;12.66;80.57;97884.64;1780289;80;21712;-60
2021/05/03 02:04:59;;;;;;;5.90;2.77;;;;;;;12.55;80.27;97878.33;1774373;80;21150;-64
2021/05/03 02:07:27;;;;;;;5.33;2.60;;;;;;;12.45;80.11;97878.05;1794603;80;21157;-59
2021/05/03 02:09:54;;;;;;;4.50;2.30;;;;;;;12.37;80.01;97876.42;1768815;80;21315;-64
2021/05/03 02:12:22;;;;;;;5.15;2.65;;;;;;;12.30;79.56;97877.38;1789302;80;21204;-61
2021/05/03 02:14:50;;;;;;;4.33;2.27;;;;;;;12.23;77.77;97878.33;1793581;80;21316;-62
2021/05/03 02:17:18;;;;;;;4.20;2.20;;;;;;;12.16;76.94;97890.91;1778901;80;21203;-60
2021/05/03 02:19:46;;;;;;;4.37;2.50;;;;;;;12.12;76.42;97891.84;1785202;80;21295;-60
2021/05/03 02:22:13;;;;;;;5.25;2.52;;;;;;;12.05;76.24;97900.55;1781920;80;21399;-66
2021/05/03 02:24:41;;;;;;;4.78;2.33;;;;;;;11.97;75.88;97902.38;1770817;80;21148;-63
2021/05/03 02:27:10;;;;;;;3.62;2.10;;;;;;;11.90;75.46;97908.04;1786624;80;21410;-65
2021/05/03 02:29:38;;;;;;;5.97;2.30;;;;;;;11.84;75.68;97911.52;1788072;80;21172;-60
2021/05/03 02:32:07;;;;;;;5.00;2.47;;;;;;;11.79;75.96;97920.20;1769275;80;21133;-64
2021/05/03 02:34:35;;;;;;;3.77;2.30;;;;;;;11.75;76.30;97928.41;1780557;80;21150;-62
2021/05/03 02:37:03;;;;;;;5.08;2.27;;;;;;;11.73;76.66;97931.47;1787950;80;21142;-63
2021/05/03 02:39:30;;;;;;;4.00;2.72;;;;;;;11.67;76.84;97927.20;1765137;80;21139;-64
2021/05/03 02:41:58;;;;;;;3.95;2.55;;;;;;;11.63;76.96;97928.56;1787601;80;21189;-63
2021/05/03 02:44:26;;;;;;;5.72;2.37;;;;;;;11.58;77.19;97940.23;1794727;80;21319;-62
2021/05/03 02:46:54;;;;;;;6.47;2.45;;;;;;;11.54;77.51;97938.98;1779212;80;21180;-63
2021/05/03 02:49:22;;;;;;;3.42;2.20;;;;;;;11.49;77.90;97950.20;1774505;80;21283;-62
2021/05/03 02:51:49;;;;;;;5.37;2.47;;;;;;;11.46;78.26;97942.48;1775238;80;21311;-63
2021/05/03 02:54:16;;;;;;;3.72;2.33;;;;;;;11.45;78.54;97949.82;1793802;80;21137;-61
2021/05/03 02:56:44;;;;;;;4.55;2.08;;;;;;;11.41;78.71;97957.17;1788961;80;21160;-62
2021/05/03 02:59:11;;;;;;;7.15;2.85;;;;;;;11.37;78.93;97965.83;1788278;80;21299;-62
2021/05/03 03:01:39;;;;;;;3.98;2.45;;;;;;;11.34;79.21;97971.00;1773418;80;21154;-64
2021/05/03 03:04:07;;;;;;;4.15;2.45;;;;;;;11.31;79.23;97976.19;1795095;80;21161;-63
2021/05/03 03:06:35;;;;;;;6.17;2.98;;;;;;;11.24;79.00;97968.06;1775390;80;21239;-63
2021/05/03 03:09:05;;;;;;;6.10;2.75;;;;;;;11.06;77.88;97984.11;1788952;80;21149;-62
2021/05/03 03:11:33;;;;;;;5.50;3.10;;;;;;;10.86;78.07;97980.80;1795537;80;21247;-62
2021/05/03 03:14:03;;;;;;;5.45;2.77;;;;;;;10.67;77.15;97986.95;1790132;80;21599;-61
2021/05/03 03:16:31;;;;;;;5.97;2.95;;;;;;;10.42;75.87;97975.45;1767574;80;21567;-61
2021/05/03 03:19:00;;;;;;;6.28;2.98;;;;;;;10.18;76.18;97992.70;1779681;80;21319;-67
2021/05/03 03:21:27;;;;;;;4.87;3.02;;;;;;;10.02;76.68;98009.06;1778679;80;21306;-63
2021/05/03 03:23:55;;;;;;;4.75;2.95;;;;;;;9.88;76.90;98000.52;1775862;80;21349;-68
2021/05/03 03:26:24;;;;;;;4.45;2.80;;;;;;;9.77;77.44;98031.02;1774834;80;21302;-72
2021/05/03 03:28:51;;;;;;;7.30;3.08;;;;;;;9.70;77.53;98006.12;1779589;80;21177;-63
2021/05/03 03:31:19;;;;;;;4.00;2.67;;;;;;;9.65;77.64;98017.29;1782472;80;21316;-63
2021/05/03 03:33:47;;;;;;;6.45;2.95;;;;;;;9.63;77.90;98014.70;1776870;80;21307;-61
2021/05/03 03:36:14;;;;;;;6.30;3.50;;;;;;;9.66;78.16;98025.00;1794920;80;21303;-66
2021/05/03 03:38:42;;;;;;;4.50;2.58;;;;;;;9.69;78.24;98029.30;1770727;80;21117;-72
2021/05/03 03:41:10;;;;;;;7.95;2.70;;;;;;;9.73;78.38;98037.02;1769644;80;22494;-72
2021/05/03 03:43:38;;;;;;;4.55;2.95;;;;;;;9.77;78.28;98034.03;1790337;80;21308;-66
2021/05/03 03:46:06;;;;;;;7.12;3.45;;;;;;;9.76;77.78;98027.14;1788406;80;21121;-70
2021/05/03 03:48:33;;;;;;;5.80;2.72;;;;;;;9.72;77.76;98039.63;1794324;80;21315;-65
2021/05/03 03:51:01;;;;;;;6.67;2.70;;;;;;;9.81;77.96;98036.16;1782484;80;21158;-69
2021/05/03 03:53:29;;;;;;;4.70;2.90;;;;;;;9.92;77.67;98039.58;1793147;80;21315;-71
2021/05/03 03:55:56;;;;;;;4.37;2.55;;;;;;;10.02;77.36;98041.27;1777803;80;21280;-70
2021/05/03 03:58:24;;;;;;;5.45;2.83;;;;;;;10.04;76.65;98043.42;1771991;80;21296;-70
2021/05/03 04:00:51;;;;;;;4.60;2.83;;;;;;;10.00;76.50;98054.62;1779440;80;21152;-66
2021/05/03 04:03:21;;;;;;;9.43;3.20;;;;;;;9.97;75.76;98054.60;1785762;80;21256;-63
2021/05/03 04:08:42;;;;;;;6.35;2.50;;;;;;;10.06;76.02;98067.92;1788234;80;21161;-66
2021/05/03 04:11:10;;;;;;;4.78;2.75;;;;;;;10.11;75.73;98079.94;1782593;80;21177;-62
2021/05/03 04:26:27;;;;;;;4.90;2.65;;;;;;;10.06;74.18;98102.29;1784435;78;21192;-65
2021/05/03 04:28:55;;;;;;;3.87;2.12;;;;;;;10.12;73.99;98110.44;1795001;79;21154;-66
2021/05/03 04:31:23;;;;;;;5.75;2.12;;;;;;;10.17;73.67;98110.86;1790160;79;21137;-65
2021/05/03 04:33:52;;;;;;;8.93;2.40;;;;;;;10.21;73.47;98110.00;1790389;78;21264;-62
2021/05/03 04:36:20;;;;;;;4.87;1.92;;;;;;;10.20;73.00;98113.86;1793177;78;21169;-66
2021/05/03 04:38:48;;;;;;;3.77;1.80;;;;;;;10.18;73.08;98120.33;1800700;78;21161;-64
2021/05/03 04:41:17;;;;;;;4.42;1.85;;;;;;;10.25;72.87;98116.44;1800217;78;21153;-68
2021/05/03 04:43:44;;;;;;;3.98;1.50;;;;;;;10.35;72.57;98122.89;1814193;78;21149;-64
2021/05/03 04:46:12;;;;;;;5.12;1.62;;;;;;;10.45;72.09;98130.19;1791169;78;21553;-65
2021/05/03 04:48:41;;;;;;;5.22;1.87;;;;;;;10.47;70.76;98124.60;1797966;79;21133;-63
2021/05/03 04:51:08;;;;;;;3.90;1.77;;;;;;;10.48;70.32;98116.02;1781347;79;21264;-62
2021/05/03 04:53:36;;;;;;;2.98;1.62;;;;;;;10.48;70.67;98130.61;1771120;78;21272;-62
2021/05/03 04:56:05;;;;;;;2.30;1.10;;;;;;;10.52;70.37;98135.77;1768061;80;21162;-69
2021/05/03 04:58:32;;;;;;;2.65;1.50;;;;;;;10.59;69.70;98144.37;1789183;78;21412;-68
2021/05/03 05:01:02;;;;;;;5.03;1.37;;;;;;;10.59;69.16;98131.47;1794130;78;21243;-60
2021/05/03 05:03:29;;;;;;;3.70;1.67;;;;;;;10.58;69.02;98146.09;1774419;80;21207;-66
2021/05/03 05:05:57;;;;;;;3.85;1.27;;;;;;;10.63;69.29;98140.49;1792107;79;21260;-68
2021/05/03 05:08:24;;;;;;;3.58;1.30;;;;;;;10.75;69.22;98151.63;1781877;80;21168;-64
2021/05/03 05:10:52;;;;;;;3.12;1.30;;;;;;;10.82;68.14;98132.69;1777480;80;21307;-66
2021/05/03 05:13:20;;;;;;;2.95;1.25;;;;;;;10.85;67.41;98127.51;1774367;80;21219;-64
2021/05/03 05:15:48;;;;;;;4.67;1.47;;;;;;;10.84;67.59;98155.48;1764963;80;21291;-67
2021/05/03 05:18:16;;;;;;;2.70;1.20;;;;;;;10.92;67.68;98157.60;1770331;80;21290;-64
2021/05/03 05:20:45;;;;;;;3.45;1.50;;;;;;;11.21;67.77;98145.85;1793925;80;21234;-66
2021/05/03 05:23:12;;;;;;;3.12;1.20;;;;;;;12.64;64.47;98155.59;1793716;78;21153;-67
2021/05/03 05:25:40;;;;;;;2.08;1.07;;;;;;;14.59;60.53;98143.80;1791597;80;21149;-66
2021/05/03 05:28:08;;;;;;;2.17;1.00;;;;;;;16.50;54.81;98146.52;1772658;80;21315;-63
2021/05/03 05:30:36;;;;;;;2.30;1.00;;;;;;;18.07;51.01;98145.48;1789130;80;21275;-63
2021/05/03 05:33:04;;;;;;;2.87;0.90;;;;;;;19.57;45.10;98156.33;1773475;80;21164;-67
2021/05/03 05:35:31;;;;;;;1.77;0.85;;;;;;;20.51;41.65;98154.75;1783925;80;21156;-66
2021/05/03 05:37:59;;;;;;;2.00;0.80;;;;;;;20.82;39.56;98157.41;1786038;79;21145;-66
2021/05/03 05:40:27;;;;;;;2.45;0.78;;;;;;;20.50;39.83;98159.58;1793043;78;21263;-66
2021/05/03 05:42:54;;;;;;;2.70;0.80;;;;;;;21.17;39.77;98164.19;1817428;78;21707;-64
2021/05/03 05:45:24;;;;;;;1.57;0.85;;;;;;;22.32;38.93;98164.91;1807412;78;21110;-68
2021/05/03 05:47:52;;;;;;;2.72;1.17;;;;;;;23.80;36.22;98151.47;1821531;78;21572;-67
2021/05/03 05:50:20;;;;;;;4.15;1.00;;;;;;;24.98;34.05;98149.52;1825974;78;21387;-67
2021/05/03 05:52:47;;;;;;;1.77;0.72;;;;;;;25.24;32.72;98160.69;1816437;78;21277;-65
2021/05/03 05:55:15;;;;;;;1.50;0.70;;;;;;;24.78;31.06;98162.14;1810992;78;21283;-66
2021/05/03 05:57:42;;;;;;;1.92;0.70;;;;;;;23.97;31.54;98166.35;1821559;78;21287;-65
2021/05/03 06:00:12;;;;;;;5.97;0.88;;;;;;;23.57;32.19;98172.48;1820113;78;21303;-65
2021/05/03 06:02:45;;;;;;;2.00;0.80;;;;;;;23.11;33.55;98178.89;1812612;78;21150;-68
2021/05/03 06:05:14;;;;;;;1.65;0.62;;;;;;;23.08;33.17;98183.01;1805180;78;21221;-66
2021/05/03 06:07:43;;;;;;;1.52;0.80;;;;;;;23.24;33.60;98200.63;1820561;78;21315;-68
2021/05/03 06:10:12;;;;;;;2.00;0.80;;;;;;;24.11;32.39;98198.98;1809876;78;21315;-64
2021/05/03 06:12:39;;;;;;;2.47;0.80;;;;;;;25.31;30.54;98206.88;1827192;78;21145;-67
2021/05/03 06:15:08;;;;;;;2.90;0.60;;;;;;;26.03;29.32;98213.91;1826852;78;21333;-67
2021/05/03 06:17:36;;;;;;;1.70;0.60;;;;;;;26.81;28.75;98218.06;1818129;78;21299;-65
2021/05/03 06:20:07;;;;;;;5.70;1.10;;;;;;;26.83;27.26;98228.08;1805204;78;21145;-65
2021/05/03 06:22:36;;;;;;;1.42;0.60;;;;;;;26.84;27.34;98237.26;1805242;78;21307;-67
2021/05/03 06:25:08;;;;;;;2.65;0.78;;;;;;;27.30;26.74;98235.95;1806878;78;21170;-66
2021/05/03 06:27:36;;;;;;;3.20;0.70;;;;;;;27.80;26.01;98255.40;1825133;78;21161;-64
2021/05/03 06:30:06;;;;;;;4.90;0.85;;;;;;;27.80;26.01;98255.40;1800832;78;21110;-67
2021/05/03 06:32:33;;;;;;;1.50;0.72;;;;;;;28.01;25.20;98262.36;1826604;78;21734;-63
2021/05/03 06:35:01;;;;;;;1.25;0.47;;;;;;;28.56;25.04;98257.01;1805521;78;21308;-66
2021/05/03 06:37:28;;;;;;;1.98;0.80;;;;;;;29.09;24.03;98278.37;1817254;78;21172;-68
2021/05/03 06:39:56;;;;;;;2.15;0.62;;;;;;;29.03;23.57;98277.01;1806248;78;21137;-65
2021/05/03 06:42:24;;;;;;;2.62;0.50;;;;;;;28.67;23.71;98264.17;1822451;78;21303;-64
2021/05/03 06:44:51;;;;;;;1.75;0.78;;;;;;;27.93;24.30;98266.01;1827025;78;21311;-65
2021/05/03 06:47:19;;;;;;;3.55;1.07;;;;;;;27.81;24.34;98271.73;1806915;78;21121;-67
2021/05/03 06:49:47;;;;;;;3.67;0.80;;;;;;;27.73;25.14;98266.55;1823248;78;21299;-65
2021/05/03 06:52:15;;;;;;;4.08;0.68;;;;;;;27.36;25.17;98280.56;1799401;78;21309;-65
2021/05/03 06:54:44;;;;;;;2.10;0.72;;;;;;;26.97;24.98;98277.00;1828743;78;21311;-66
2021/05/03 06:57:12;;;;;;;5.00;0.90;;;;;;;26.26;26.20;98286.52;1826833;78;21220;-64
2021/05/03 06:59:40;;;;;;;3.77;0.80;;;;;;;25.18;27.21;98280.36;1821430;78;21169;-65
2021/05/03 07:02:09;;;;;;;2.83;0.85;;;;;;;23.80;28.97;98281.06;1825847;78;21292;-66
2021/05/03 07:04:38;;;;;;;2.17;0.90;;;;;;;23.62;29.45;98292.09;1809559;78;21322;-65
2021/05/03 07:07:05;;;;;;;1.75;0.70;;;;;;;23.71;29.12;98280.19;1809380;78;21150;-67
2021/05/03 07:09:34;;;;;;;3.95;0.62;;;;;;;24.09;29.10;98273.34;1822686;78;21156;-65
2021/05/03 07:12:09;;;;;;;5.30;0.88;;;;;;;22.73;30.44;98277.70;1812204;78;21564;-66
2021/05/03 07:14:35;;;;;;;2.22;0.88;;;;;;;21.09;32.89;98279.97;1821756;78;21173;-68
2021/05/03 07:17:05;;;;;;;3.55;0.80;;;;;;;19.71;35.28;98276.24;1804223;78;21180;-64
2021/05/03 07:19:35;;;;;;;1.47;0.88;;;;;;;18.64;37.20;98282.92;1813069;78;21144;-67
2021/05/03 07:22:05;;;;;;;2.12;0.78;;;;;;;17.86;38.62;98285.37;1802007;78;21140;-64
2021/05/03 07:24:34;;;;;;;2.50;0.90;;;;;;;17.66;39.46;98286.36;1815842;78;21129;-66
2021/05/03 07:27:03;;;;;;;2.15;0.90;;;;;;;18.21;38.70;98282.97;1815136;78;21152;-69
2021/05/03 07:29:31;;;;;;;3.02;1.12;;;;;;;19.25;37.59;98287.02;1794477;78;21166;-64
2021/05/03 07:31:59;;;;;;;3.62;0.90;;;;;;;20.07;36.38;98288.39;1802326;78;21138;-67
2021/05/03 07:34:27;;;;;;;3.27;1.10;;;;;;;20.24;36.20;98292.14;1797045;79;21169;-64
2021/05/03 07:36:54;;;;;;;2.08;0.80;;;;;;;20.24;35.99;98299.55;1794862;79;21295;-67
2021/05/03 07:39:22;;;;;;;1.55;0.75;;;;;;;20.12;36.24;98302.20;1798021;80;21150;-65
2021/05/03 07:41:50;;;;;;;2.10;0.80;;;;;;;20.42;35.09;98305.83;1798325;79;21288;-67
2021/05/03 07:44:18;;;;;;;2.65;0.90;;;;;;;19.72;35.59;98301.06;1797411;78;21236;-65
2021/05/03 07:46:46;;;;;;;3.17;1.20;;;;;;;18.95;37.33;98304.62;1797819;80;21355;-67
2021/05/03 07:49:14;;;;;;;3.55;0.80;;;;;;;18.36;38.42;98327.36;1783784;80;21149;-64
2021/05/03 07:51:42;;;;;;;2.15;1.05;;;;;;;18.25;39.16;98324.70;1780868;80;21154;-66
2021/05/03 07:54:10;;;;;;;3.67;0.95;;;;;;;18.28;39.55;98322.83;1776781;80;21335;-66
2021/05/03 07:56:38;;;;;;;5.33;1.27;;;;;;;18.58;39.36;98317.56;1781296;80;21156;-67
2021/05/03 07:59:06;;;;;;;1.77;0.85;;;;;;;18.55;38.95;98312.45;1794475;80;21611;-62
2021/05/03 08:01:33;;;;;;;1.85;0.90;;;;;;;18.26;39.57;98307.66;1793456;80;21141;-56
2021/05/03 08:04:01;;;;;;;3.45;0.90;;;;;;;18.21;40.33;98312.16;1793454;80;21262;-58
2021/05/03 08:06:29;;;;;;;3.27;0.90;;;;;;;18.39;40.10;98316.84;1795359;78;21290;-68
2021/05/03 08:09:00;;;;;;;3.33;0.90;;;;;;;18.21;40.02;98323.91;1796277;80;21303;-65
2021/05/03 08:11:27;;;;;;;3.22;1.30;;;;;;;17.80;40.60;98329.91;1793797;78;21170;-66
2021/05/03 08:13:55;;;;;;;1.75;0.85;;;;;;;17.19;41.73;98324.56;1789518;78;21184;-66
2021/05/03 08:16:24;;;;;;;2.85;1.20;;;;;;;16.38;43.53;98323.91;1789034;78;21193;-64
2021/05/03 08:18:53;;;;;;;3.87;1.30;;;;;;;15.79;44.84;98327.76;1789155;79;21297;-64
2021/05/03 08:21:21;;;;;;;3.92;1.10;;;;;;;15.34;46.37;98339.45;1794524;78;21276;-65
2021/05/03 08:23:50;;;;;;;3.75;1.30;;;;;;;14.85;47.98;98328.59;1790495;79;21125;-64
2021/05/03 08:26:17;;;;;;;3.98;1.10;;;;;;;14.16;49.53;98335.23;1797700;78;21130;-64
2021/05/03 08:28:48;;;;;;;5.65;1.40;;;;;;;13.43;51.37;98347.78;1776878;80;21619;-68
2021/05/03 08:31:16;;;;;;;2.50;1.32;;;;;;;13.34;52.16;98336.64;1791634;78;21374;-63
2021/05/03 08:33:45;;;;;;;2.75;1.37;;;;;;;13.37;52.19;98347.83;1788308;78;21162;-63
2021/05/03 08:36:15;;;;;;;3.45;1.00;;;;;;;13.44;52.06;98355.11;1790865;79;21126;-66
2021/05/03 08:38:42;;;;;;;6.22;1.57;;;;;;;13.52;51.23;98344.22;1801857;78;21146;-66
2021/05/03 08:41:16;;;;;;;2.12;1.00;;;;;;;13.73;50.43;98335.77;1793371;78;21129;-67
2021/05/03 08:43:47;;;;;;;5.10;1.20;;;;;;;13.85;50.17;98331.74;1800383;78;21161;-64
2021/05/03 08:46:26;;;;;;;2.58;1.15;;;;;;;13.93;49.35;98339.43;1778336;78;21706;-61
2021/05/03 08:48:56;;;;;;;3.98;1.17;;;;;;;14.45;48.08;98347.37;1791733;78;21296;-70
2021/05/03 08:51:28;;;;;;;2.45;1.22;;;;;;;14.78;47.10;98332.16;1775294;80;21125;-62
2021/05/03 08:53:54;;;;;;;2.92;1.20;;;;;;;15.34;45.95;98336.85;1794143;78;21256;-70
2021/05/03 08:56:17;;;;;;;4.28;1.10;;;;;;;15.09;45.60;98327.33;1781516;78;21204;-69
2021/05/03 08:58:45;;;;;;;2.92;1.17;;;;;;;14.63;46.72;98353.18;1798351;78;21169;-63
2021/05/03 09:01:13;;;;;;;4.58;1.10;;;;;;;14.79;46.84;98349.92;1792430;78;21153;-64
2021/05/03 09:03:41;;;;;;;5.05;1.07;;;;;;;15.01;46.37;98340.02;1815118;78;21158;-68
2021/05/03 09:06:11;;;;;;;2.00;1.05;;;;;;;15.27;45.50;98348.24;1756099;80;21169;-62
2021/05/03 09:08:39;;;;;;;1.60;1.02;;;;;;;15.36;45.38;98361.05;1759192;81;21178;-62
2021/05/03 09:11:07;;;;;;;3.10;1.30;;;;;;;15.53;45.15;98352.10;1760080;80;21177;-60
2021/05/03 09:13:39;;;;;;;2.30;1.17;;;;;;;15.87;44.09;98351.02;1788341;80;21171;-63
2021/05/03 09:16:24;;;;;;;4.37;1.10;;;;;;;15.93;43.32;98360.47;1759340;80;21179;-63
2021/05/03 09:18:53;;;;;;;2.33;1.30;;;;;;;15.87;43.74;98362.73;1780007;80;21113;-62
2021/05/03 09:21:29;;;;;;;4.37;1.10;;;;;;;15.67;44.15;98363.08;1790805;79;21126;-63
2021/05/03 09:24:20;;;;;;;4.80;1.40;;;;;;;15.59;44.21;98355.88;1768757;80;21176;-64
2021/05/03 09:26:55;;;;;;;3.55;1.00;;;;;;;15.15;44.79;98350.59;1754837;80;21579;-63
2021/05/03 09:29:46;;;;;;;3.45;1.17;;;;;;;14.87;46.07;98347.61;1765403;79;21130;-69
2021/05/03 09:32:21;;;;;;;3.65;1.47;;;;;;;14.89;45.31;98349.75;1758702;80;21130;-68
2021/05/03 09:34:54;;;;;;;3.05;1.10;;;;;;;14.47;45.88;98344.29;1752600;80;21531;-69
2021/05/03 09:37:31;;;;;;;3.98;1.22;;;;;;;13.87;46.98;98330.84;1800817;78;21311;-68
2021/05/03 09:40:11;;;;;;;3.67;1.22;;;;;;;13.58;47.94;98343.28;1785475;78;21204;-67
2021/05/03 09:42:52;;;;;;;3.33;1.50;;;;;;;13.32;48.42;98334.50;1764016;80;21215;-65
2021/05/03 09:45:30;;;;;;;4.85;1.50;;;;;;;13.19;49.63;98344.95;1757227;79;21247;-64
2021/05/03 09:48:00;;;;;;;4.20;1.32;;;;;;;13.48;49.23;98346.41;1764964;80;21278;-65
2021/05/03 09:50:32;;;;;;;3.65;1.75;;;;;;;13.62;48.83;98338.05;1773978;80;21309;-67
2021/05/03 09:53:15;;;;;;;2.12;1.32;;;;;;;13.66;49.09;98344.94;1758917;80;21171;-66
2021/05/03 09:55:53;;;;;;;3.27;1.90;;;;;;;13.63;48.93;98337.61;1752284;81;21157;-64
2021/05/03 09:58:24;;;;;;;3.35;1.80;;;;;;;13.57;48.95;98345.03;1764589;80;21252;-65
2021/05/03 10:00:55;;;;;;;7.05;3.98;;;;;;;13.59;48.76;98362.73;1759294;81;21175;-62
2021/05/03 10:03:43;;;;;;;11.75;3.85;;;;;;;13.27;49.43;98360.89;1763230;80;21198;-64
2021/05/03 10:06:12;;;;;;;4.67;2.37;;;;;;;12.98;50.45;98371.05;1772235;79;21423;-62
2021/05/03 10:08:47;;;;;;;4.95;1.80;;;;;;;13.14;50.12;98370.48;1776809;79;21152;-65
2021/05/03 10:11:17;;;;;;;;;;;;;;;13.43;49.54;98367.63;1732615;81;21142;-62
2021/05/03 10:13:51;;;;;;;2.85;1.50;;;;;;;13.66;48.77;98370.86;1741596;81;20236;-64
2021/05/03 10:16:20;;;;;;;3.02;1.45;;;;;;;13.90;48.45;98389.61;1747021;81;21168;-63
2021/05/03 10:18:48;;;;;;;3.77;1.75;;;;;;;14.07;47.56;98392.86;1750184;81;21430;-63
2021/05/03 10:21:16;;;;;;;2.80;1.77;;;;;;;14.09;47.74;98387.63;1745766;81;21318;-63
2021/05/03 10:23:46;;;;;;;3.62;1.87;;;;;;;14.15;47.73;98387.58;1743451;81;21161;-65
2021/05/03 10:26:14;;;;;;;3.75;1.92;;;;;;;14.29;47.70;98368.77;1747445;81;21184;-64
2021/05/03 10:28:53;;;;;;;3.37;1.57;;;;;;;14.44;47.50;98387.17;1749453;81;21136;-66
2021/05/03 10:31:22;;;;;;;5.15;1.55;;;;;;;14.50;47.29;98381.92;1741599;81;21347;-66
2021/05/03 10:33:52;;;;;;;5.37;1.50;;;;;;;14.40;47.38;98392.42;1748800;81;21299;-63
2021/05/03 10:36:38;;;;;;;2.70;1.37;;;;;;;14.18;47.17;98376.30;1728683;81;21172;-65
2021/05/03 10:39:32;;;;;;;4.58;1.50;;;;;;;13.98;47.65;98394.26;1734395;81;21342;-66
2021/05/03 10:42:11;;;;;;;5.25;1.60;;;;;;;14.18;47.18;98399.20;1739196;80;21713;-65
2021/05/03 10:45:01;;;;;;;10.38;1.82;;;;;;;14.36;46.88;98402.00;1721028;81;21236;-64
2021/05/03 10:47:39;;;;;;;3.25;1.40;;;;;;;14.57;46.44;98401.32;1753052;81;21143;-64
2021/05/03 10:50:00;;;;;;;3.10;1.43;;;;;;;14.63;45.95;98399.92;1740358;82;21152;-67
2021/05/03 10:52:37;;;;;;;2.98;1.57;;;;;;;14.65;45.98;98405.95;1718007;82;21299;-62
2021/05/03 10:55:05;;;;;;;4.00;1.60;;;;;;;14.55;45.98;98409.13;1739827;81;21309;-65
2021/05/03 10:57:35;;;;;;;3.02;1.40;;;;;;;14.44;46.18;98407.95;1728570;82;21270;-66
2021/05/03 11:00:08;;;;;;;3.20;1.60;;;;;;;14.33;46.46;98399.45;1727963;82;21339;-63
2021/05/03 11:02:43;;;;;;;3.83;1.72;;;;;;;13.73;47.57;98369.04;1720367;82;21582;-67
2021/05/03 11:05:25;;;;;;;3.72;1.40;;;;;;;13.18;48.92;98403.28;1724568;82;21316;-64
2021/05/03 11:08:10;;;;;;;2.22;1.52;;;;;;;12.91;49.67;98399.16;1738135;81;21275;-64
2021/05/03 11:11:08;;;;;;;4.72;1.65;;;;;;;12.72;50.16;98409.66;1759571;80;21299;-67
2021/05/03 11:13:49;;;;;;;2.67;1.55;;;;;;;12.58;50.39;98403.26;1767506;80;21600;-64
2021/05/03 11:16:34;;;;;;;3.37;1.70;;;;;;;12.50;50.16;98404.19;1764324;80;21213;-63
2021/05/03 11:19:27;;;;;;;3.95;2.20;;;;;;;12.62;50.23;98391.58;1772486;80;21330;-63
2021/05/03 11:21:55;;;;;;;3.77;1.62;;;;;;;12.71;50.00;98406.63;1758429;80;21166;-61
2021/05/03 11:27:27;;;;;;;4.50;2.30;;;;;;;13.27;48.93;98388.95;1846301;76;22174;-63
2021/05/03 11:30:03;;;;;;;3.58;1.72;;;;;;;13.12;48.83;98397.69;1745191;81;21133;-63
2021/05/03 11:32:37;;;;;;;3.47;1.55;;;;;;;13.03;49.20;98395.19;1752221;81;21145;-62
2021/05/03 11:35:25;;;;;;;4.62;2.02;;;;;;;12.94;49.57;98399.98;1749098;81;21322;-62
2021/05/03 11:38:13;;;;;;;3.33;1.95;;;;;;;13.11;49.53;98401.16;1747215;81;21239;-62
2021/05/03 11:40:56;;;;;;;5.15;2.00;;;;;;;13.46;49.28;98409.09;1747055;81;21144;-61
2021/05/03 11:43:53;;;;;;;3.87;2.22;;;;;;;13.81;48.42;98413.89;1750685;81;21751;-62
2021/05/03 11:46:31;;;;;;;3.67;1.82;;;;;;;14.21;48.21;98400.46;1763875;80;21244;-61
2021/05/03 11:48:57;;;;;;;4.95;1.87;;;;;;;14.60;46.38;98405.17;1761109;80;21222;-61
2021/05/03 11:51:26;;;;;;;4.55;1.90;;;;;;;14.76;46.30;98409.27;1766086;81;21205;-63
2021/05/03 11:53:54;;;;;;;3.95;1.95;;;;;;;14.96;45.43;98404.64;1758655;81;21130;-63
2021/05/03 11:56:26;;;;;;;5.62;2.15;;;;;;;14.82;44.87;98407.87;1736366;81;21306;-63
2021/05/03 11:58:58;;;;;;;8.75;2.00;;;;;;;14.72;44.80;98407.15;1758631;80;21154;-65
2021/05/03 12:01:28;;;;;;;5.95;1.77;;;;;;;14.78;44.70;98410.09;1758791;81;21237;-59
2021/05/03 12:03:58;;;;;;;5.40;1.70;;;;;;;14.89;44.78;98404.30;1746848;81;21344;-63